Time;durP1;ratioP1;P1;durP2;ratioP2;P2;SDS_P1;SDS_P2;PMS_P1;PMS_P2;Temp;Humidity;BMP_temperature;BMP_pressure;BME280_temperature;BME280_humidity;BME280_pressure;Samples;Min_cycle;Max_cycle;Signal;HPM_P1;HPM_P2
2024/03/07 00:02:17;;;;;;;;;;;;;;;21.95;25.58;98028.22;5054320;28;727;-75
2024/03/07 00:04:43;;;;;;;;;;;;;;;21.73;26.04;98040.13;5066938;28;830;-75
2024/03/07 00:07:09;;;;;;;;;;;;;;;21.83;25.84;98022.03;5057841;28;882;-76
2024/03/07 00:09:34;;;;;;;;;;;;;;;21.77;26.15;98028.72;5075645;28;806;-75
2024/03/07 00:12:03;;;;;;;;;;;;;;;21.57;26.31;98031.66;5075719;28;783;-75
2024/03/07 00:14:29;;;;;;;;;;;;;;;21.70;25.92;98035.34;5076809;28;1918;-75
2024/03/07 00:16:57;;;;;;;;;;;;;;;21.68;25.88;98026.50;5076701;28;847;-75
2024/03/07 00:19:26;;;;;;;;;;;;;;;21.96;25.41;98022.09;5076513;28;858;-75
2024/03/07 00:21:55;;;;;;;;;;;;;;;21.94;25.64;98026.63;5076339;28;991;-76
2024/03/07 00:24:21;;;;;;;;;;;;;;;21.94;25.51;98023.78;5075146;28;956;-75
2024/03/07 00:26:46;;;;;;;;;;;;;;;21.94;25.39;98032.28;5057276;28;996;-75
2024/03/07 00:29:12;;;;;;;;;;;;;;;21.71;25.76;98028.47;5076557;28;763;-74
2024/03/07 00:31:37;;;;;;;;;;;;;;;21.38;26.08;98021.22;5040830;28;1042;-75
2024/03/07 00:34:03;;;;;;;;;;;;;;;21.72;25.98;98024.38;5076298;28;735;-75
2024/03/07 00:36:28;;;;;;;;;;;;;;;21.70;25.72;98023.22;5076188;28;1970;-75
2024/03/07 00:38:54;;;;;;;;;;;;;;;21.82;25.64;98014.78;5076183;28;797;-75
2024/03/07 00:41:20;;;;;;;;;;;;;;;21.79;25.85;98015.69;5076292;28;735;-75
2024/03/07 00:43:46;;;;;;;;;;;;;;;21.87;25.88;98016.28;5058514;28;1301;-75
2024/03/07 00:46:11;;;;;;;;;;;;;;;21.77;25.96;98015.34;5058128;28;1266;-75
2024/03/07 00:48:37;;;;;;;;;;;;;;;21.10;26.58;98017.84;5074834;28;723;-75
2024/03/07 00:51:04;;;;;;;;;;;;;;;21.14;26.33;98015.72;5075050;28;822;-75
2024/03/07 00:53:29;;;;;;;;;;;;;;;21.52;26.24;98021.66;5073460;28;939;-75
2024/03/07 00:55:55;;;;;;;;;;;;;;;21.73;25.91;98011.81;5056645;28;1906;-75
2024/03/07 00:58:21;;;;;;;;;;;;;;;21.84;25.56;98017.19;5056616;28;1140;-75
2024/03/07 01:00:47;;;;;;;;;;;;;;;21.84;25.73;98012.31;5056584;28;798;-75
2024/03/07 01:03:13;;;;;;;;;;;;;;;21.79;25.69;98006.38;5039875;28;1130;-75
2024/03/07 01:05:41;;;;;;;;;;;;;;;21.83;25.55;98005.06;5056767;28;1026;-75
2024/03/07 01:08:07;;;;;;;;;;;;;;;21.72;25.66;98010.22;5073501;28;864;-75
2024/03/07 01:10:33;;;;;;;;;;;;;;;21.71;25.71;98014.31;5073416;28;754;-75
2024/03/07 01:13:01;;;;;;;;;;;;;;;21.62;25.86;98011.31;5056573;28;1203;-75
2024/03/07 01:15:30;;;;;;;;;;;;;;;21.68;25.84;98008.72;5056735;28;1905;-75
2024/03/07 01:17:56;;;;;;;;;;;;;;;21.83;25.82;98005.06;5056336;28;960;-75
2024/03/07 01:20:21;;;;;;;;;;;;;;;21.90;25.54;98003.25;5040076;28;1153;-75
2024/03/07 01:22:47;;;;;;;;;;;;;;;21.73;25.77;98011.81;5056336;28;1004;-75
2024/03/07 01:25:12;;;;;;;;;;;;;;;21.84;25.66;98006.63;5056541;28;837;-75
2024/03/07 01:27:38;;;;;;;;;;;;;;;21.65;25.60;98001.91;5073177;28;811;-75
2024/03/07 01:30:04;;;;;;;;;;;;;;;21.28;26.39;98009.69;5056264;28;1201;-74
2024/03/07 01:32:30;;;;;;;;;;;;;;;21.35;26.39;98007.94;5073288;28;949;-75
2024/03/07 01:34:55;;;;;;;;;;;;;;;21.72;25.76;98015.88;5056213;28;1890;-76
2024/03/07 01:37:21;;;;;;;;;;;;;;;21.67;25.76;98013.59;5052994;28;1205;-75
2024/03/07 01:39:47;;;;;;;;;;;;;;;21.64;25.90;98014.47;5038698;28;1245;-75
2024/03/07 01:42:12;;;;;;;;;;;;;;;21.82;25.63;98017.63;5056280;28;777;-75
2024/03/07 01:44:40;;;;;;;;;;;;;;;21.69;25.60;98016.75;5056288;28;1129;-75
2024/03/07 01:47:06;;;;;;;;;;;;;;;21.48;26.06;98012.47;5056712;28;926;-75
2024/03/07 01:49:31;;;;;;;;;;;;;;;21.46;26.01;98008.50;5072942;28;1683;-75
2024/03/07 01:51:57;;;;;;;;;;;;;;;21.62;25.83;98005.63;5056186;28;906;-75
2024/03/07 01:54:22;;;;;;;;;;;;;;;21.49;26.31;98018.91;5072577;28;914;-75
2024/03/07 01:56:48;;;;;;;;;;;;;;;21.65;25.96;98027.38;5055793;28;1971;-74
2024/03/07 01:59:13;;;;;;;;;;;;;;;21.67;25.83;98019.25;5055970;28;1432;-75
2024/03/07 02:01:39;;;;;;;;;;;;;;;21.96;25.57;98024.13;5073032;28;684;-75
2024/03/07 02:04:05;;;;;;;;;;;;;;;21.90;25.79;98014.59;5073186;28;1194;-75
2024/03/07 02:06:30;;;;;;;;;;;;;;;21.96;25.64;98019.25;5039180;28;1034;-75
2024/03/07 02:08:56;;;;;;;;;;;;;;;21.45;26.17;98012.53;5054146;28;1112;-75
2024/03/07 02:11:23;;;;;;;;;;;;;;;21.55;25.76;98017.13;5092560;28;926;-75
2024/03/07 02:13:49;;;;;;;;;;;;;;;21.13;26.33;98018.97;5076038;28;1127;-75
2024/03/07 02:16:14;;;;;;;;;;;;;;;21.67;26.00;98019.25;5052434;28;1980;-75
2024/03/07 02:18:40;;;;;;;;;;;;;;;21.60;25.90;98022.25;5036142;28;954;-75
2024/03/07 02:21:06;;;;;;;;;;;;;;;21.63;26.09;98018.53;5015920;28;1204;-75
2024/03/07 02:23:32;;;;;;;;;;;;;;;21.61;25.85;98021.03;4999805;28;1049;-75
2024/03/07 02:25:58;;;;;;;;;;;;;;;21.60;26.05;98016.59;4999553;28;937;-75
2024/03/07 02:28:24;;;;;;;;;;;;;;;21.63;25.88;98018.53;5032262;28;783;-75
2024/03/07 02:30:49;;;;;;;;;;;;;;;21.63;25.84;98024.22;5032598;28;800;-75
2024/03/07 02:33:15;;;;;;;;;;;;;;;21.50;25.75;98020.50;5032292;28;831;-75
2024/03/07 02:35:40;;;;;;;;;;;;;;;21.51;26.17;98022.13;5032210;28;1992;-75
2024/03/07 02:38:06;;;;;;;;;;;;;;;21.51;26.11;98022.13;5032369;28;830;-75
2024/03/07 02:40:31;;;;;;;;;;;;;;;21.66;25.63;98029.00;5032200;28;767;-75
2024/03/07 02:42:57;;;;;;;;;;;;;;;21.65;25.96;98024.56;5015608;28;831;-75
2024/03/07 02:45:23;;;;;;;;;;;;;;;21.72;25.71;98020.75;5015886;28;716;-75
2024/03/07 02:47:48;;;;;;;;;;;;;;;21.74;25.72;98029.59;5015961;28;1159;-75
2024/03/07 02:50:14;;;;;;;;;;;;;;;21.63;25.96;98032.72;5016620;28;823;-75
2024/03/07 02:52:40;;;;;;;;;;;;;;;21.27;26.25;98036.41;5052813;28;917;-75
2024/03/07 02:55:06;;;;;;;;;;;;;;;21.66;25.99;98028.19;5077036;28;1898;-75
2024/03/07 02:57:31;;;;;;;;;;;;;;;21.59;25.95;98023.50;5035675;28;1229;-75
2024/03/07 02:59:57;;;;;;;;;;;;;;;21.59;26.24;98038.44;5035816;28;1446;-75
2024/03/07 03:02:22;;;;;;;;;;;;;;;21.77;25.89;98032.34;5035957;28;887;-75
2024/03/07 03:04:48;;;;;;;;;;;;;;;22.02;25.28;98033.66;5035826;28;1086;-75
2024/03/07 03:07:13;;;;;;;;;;;;;;;21.77;25.63;98029.50;5035637;28;1116;-75
2024/03/07 03:09:43;;;;;;;;;;;;;;;21.49;26.06;98035.91;5019157;28;742;-75
2024/03/07 03:12:09;;;;;;;;;;;;;;;21.55;25.71;98039.78;5018707;28;1251;-75
2024/03/07 03:14:34;;;;;;;;;;;;;;;21.82;25.79;98031.78;5035118;28;1898;-75
2024/03/07 03:17:00;;;;;;;;;;;;;;;21.73;25.59;98030.84;5018879;28;878;-75
2024/03/07 03:19:26;;;;;;;;;;;;;;;21.56;26.13;98035.72;5035328;28;768;-75
2024/03/07 03:21:52;;;;;;;;;;;;;;;21.70;26.09;98034.53;5035551;28;700;-75
2024/03/07 03:24:17;;;;;;;;;;;;;;;21.70;25.79;98034.53;5018719;28;1186;-75
2024/03/07 03:26:43;;;;;;;;;;;;;;;21.72;25.76;98032.88;5035343;28;750;-75
2024/03/07 03:29:09;;;;;;;;;;;;;;;21.45;25.99;98038.00;5068999;28;789;-75
2024/03/07 03:31:35;;;;;;;;;;;;;;;21.40;25.92;98044.22;5095518;28;773;-75
2024/03/07 03:34:01;;;;;;;;;;;;;;;21.93;25.49;98042.84;5061693;28;1223;-75
2024/03/07 03:36:26;;;;;;;;;;;;;;;21.74;25.71;98041.72;5078408;28;1918;-75
2024/03/07 03:38:52;;;;;;;;;;;;;;;21.71;25.93;98039.78;5095290;28;802;-75
2024/03/07 03:41:17;;;;;;;;;;;;;;;21.82;25.71;98040.28;5061580;28;901;-75
2024/03/07 03:43:43;;;;;;;;;;;;;;;21.77;25.63;98038.00;5095017;28;758;-75
2024/03/07 03:46:12;;;;;;;;;;;;;;;21.85;25.63;98041.41;5075941;28;889;-75
2024/03/07 03:48:40;;;;;;;;;;;;;;;21.73;25.50;98040.13;5059563;28;782;-75
2024/03/07 03:51:09;;;;;;;;;;;;;;;21.63;25.93;98034.75;5075810;28;850;-75
2024/03/07 03:53:37;;;;;;;;;;;;;;;21.89;25.46;98041.34;5059322;28;1133;-75
2024/03/07 03:56:06;;;;;;;;;;;;;;;21.65;26.00;98041.53;5059637;28;1906;-75
2024/03/07 03:58:31;;;;;;;;;;;;;;;21.71;25.85;98036.13;5075726;28;680;-74
2024/03/07 04:00:58;;;;;;;;;;;;;;;21.79;25.89;98043.22;5059059;28;1125;-75
2024/03/07 04:03:24;;;;;;;;;;;;;;;21.85;25.46;98036.56;5075979;28;727;-75
2024/03/07 04:05:49;;;;;;;;;;;;;;;21.75;25.66;98036.84;5075811;28;802;-75
2024/03/07 04:08:15;;;;;;;;;;;;;;;21.31;26.06;98039.97;5076700;28;794;-75
2024/03/07 04:10:41;;;;;;;;;;;;;;;21.91;25.30;98038.84;5042564;28;1137;-75
2024/03/07 04:13:07;;;;;;;;;;;;;;;21.76;25.71;98042.06;5075085;28;1101;-75
2024/03/07 04:15:33;;;;;;;;;;;;;;;21.87;25.46;98032.50;5058859;28;1961;-75
2024/03/07 04:17:58;;;;;;;;;;;;;;;21.85;25.73;98042.22;5058991;28;1114;-75
2024/03/07 04:20:24;;;;;;;;;;;;;;;21.91;25.38;98039.63;5075407;28;869;-75
2024/03/07 04:22:50;;;;;;;;;;;;;;;21.56;26.09;98041.41;5075094;28;767;-74
2024/03/07 04:25:16;;;;;;;;;;;;;;;21.39;26.14;98042.63;5074296;28;994;-74
2024/03/07 04:27:41;;;;;;;;;;;;;;;21.74;25.87;98040.91;5041268;28;1520;-75
2024/03/07 04:30:07;;;;;;;;;;;;;;;21.72;25.78;98047.03;5057194;28;1260;-75
2024/03/07 04:32:34;;;;;;;;;;;;;;;21.64;26.09;98048.44;5057405;28;1091;-75
2024/03/07 04:35:00;;;;;;;;;;;;;;;21.55;26.05;98039.78;5057357;28;1981;-74
2024/03/07 04:37:27;;;;;;;;;;;;;;;21.60;26.04;98044.91;5057157;28;815;-75
2024/03/07 04:39:53;;;;;;;;;;;;;;;21.79;25.75;98044.00;5040732;28;1099;-75
2024/03/07 04:42:18;;;;;;;;;;;;;;;21.56;25.64;98042.19;5040410;28;1083;-74
2024/03/07 04:44:44;;;;;;;;;;;;;;;21.63;25.70;98046.88;5057540;28;960;-75
2024/03/07 04:47:09;;;;;;;;;;;;;;;21.25;26.35;98052.25;5057347;28;1031;-75
2024/03/07 04:49:35;;;;;;;;;;;;;;;21.67;25.59;98053.22;5073764;28;1138;-75
2024/03/07 04:52:01;;;;;;;;;;;;;;;21.60;25.88;98056.22;5056986;28;1059;-75
2024/03/07 04:54:27;;;;;;;;;;;;;;;21.79;25.36;98055.34;5057348;28;958;-75
2024/03/07 04:56:53;;;;;;;;;;;;;;;21.81;25.54;98055.69;5053005;28;1976;-75
2024/03/07 04:59:19;;;;;;;;;;;;;;;21.80;25.74;98062.59;5058325;28;947;-75
2024/03/07 05:01:44;;;;;;;;;;;;;;;21.54;25.72;98066.50;5074819;28;997;-76
2024/03/07 05:04:11;;;;;;;;;;;;;;;21.12;26.13;98063.47;5073974;28;1226;-74
2024/03/07 05:06:37;;;;;;;;;;;;;;;21.52;26.01;98069.78;5074263;28;1340;-75
2024/03/07 05:09:03;;;;;;;;;;;;;;;21.67;25.61;98075.88;5075931;28;1126;-75
2024/03/07 05:11:32;;;;;;;;;;;;;;;21.62;25.97;98073.59;5091691;28;1409;-75
2024/03/07 05:13:58;;;;;;;;;;;;;;;21.73;25.73;98079.78;5074952;28;1386;-75
2024/03/07 05:16:24;;;;;;;;;;;;;;;21.83;25.61;98075.88;5075766;28;1967;-75
2024/03/07 05:18:50;;;;;;;;;;;;;;;21.77;25.54;98077.66;5058092;28;1242;-75
2024/03/07 05:21:37;;;;;;;;;;;;;;;21.61;25.67;98076.88;5076044;28;1004;-75
2024/03/07 05:24:03;;;;;;;;;;;;;;;21.26;25.89;98080.09;5088585;28;995;-76
2024/03/07 05:26:40;;;;;;;;;;;;;;;21.58;25.68;98075.72;5091524;28;1129;-75
2024/03/07 05:29:09;;;;;;;;;;;;;;;21.66;25.85;98079.16;5074697;28;978;-76
2024/03/07 05:31:38;;;;;;;;;;;;;;;21.67;25.88;98078.72;5074339;28;954;-75
2024/03/07 05:34:09;;;;;;;;;;;;;;;21.81;25.76;98086.84;5091552;28;911;-75
2024/03/07 05:36:35;;;;;;;;;;;;;;;21.63;25.86;98078.00;5074614;28;1987;-75
2024/03/07 05:39:02;;;;;;;;;;;;;;;21.44;25.88;98087.38;5074583;28;1113;-76
2024/03/07 05:41:29;;;;;;;;;;;;;;;21.65;25.59;98083.22;5057963;28;1099;-75
2024/03/07 05:43:55;;;;;;;;;;;;;;;21.46;25.83;98087.75;5057686;28;1300;-75
2024/03/07 05:46:21;;;;;;;;;;;;;;;21.72;25.78;98095.19;5057999;28;1188;-74
2024/03/07 05:48:50;;;;;;;;;;;;;;;21.73;25.80;98093.94;5057788;28;1487;-75
2024/03/07 05:51:15;;;;;;;;;;;;;;;21.87;25.45;98091.97;5073146;28;1090;-75
2024/03/07 05:53:41;;;;;;;;;;;;;;;21.66;25.99;98099.78;5056747;28;1187;-75
2024/03/07 05:56:07;;;;;;;;;;;;;;;21.95;25.66;98097.00;5093163;28;1909;-75
2024/03/07 05:58:33;;;;;;;;;;;;;;;21.68;25.85;98105.00;5076374;28;1160;-75
2024/03/07 06:00:59;;;;;;;;;;;;;;;21.80;25.35;98093.75;5059799;28;1121;-75
2024/03/07 06:03:25;;;;;;;;;;;;;;;21.59;25.90;98108.44;5059737;28;1130;-74
2024/03/07 06:05:51;;;;;;;;;;;;;;;21.57;25.65;98099.59;5059546;28;1496;-75
2024/03/07 06:08:17;;;;;;;;;;;;;;;21.75;25.91;98107.66;5043098;28;1339;-75
2024/03/07 06:10:43;;;;;;;;;;;;;;;21.75;25.71;98107.66;5036024;28;1492;-75
2024/03/07 06:13:10;;;;;;;;;;;;;;;21.81;25.79;98115.19;5036119;28;1106;-74
2024/03/07 06:15:38;;;;;;;;;;;;;;;21.82;25.41;98116.78;4993456;28;1906;-76
2024/03/07 06:18:04;;;;;;;;;;;;;;;21.77;25.58;98122.16;4977240;28;1244;-76
2024/03/07 06:20:29;;;;;;;;;;;;;;;21.32;26.03;98117.19;4993502;28;1455;-76
2024/03/07 06:22:56;;;;;;;;;;;;;;;21.33;26.37;98113.13;4992391;28;1120;-77
2024/03/07 06:28:10;;;;;;;;;;;;;;;21.84;25.62;98128.44;4928969;29;1189;-76
2024/03/07 06:30:37;;;;;;;;;;;;;;;21.66;25.79;98125.28;4939296;29;1104;-76
2024/03/07 06:33:02;;;;;;;;;;;;;;;21.87;25.73;98123.94;4939177;29;1065;-76
2024/03/07 06:35:28;;;;;;;;;;;;;;;21.75;25.59;98122.59;4939101;28;1981;-76
2024/03/07 06:37:54;;;;;;;;;;;;;;;21.55;25.86;98125.53;4939112;29;1074;-76
2024/03/07 06:40:22;;;;;;;;;;;;;;;21.69;25.77;98124.38;4958028;29;1098;-76
2024/03/07 06:42:51;;;;;;;;;;;;;;;21.45;25.93;98120.94;4960170;28;1003;-76
2024/03/07 06:45:18;;;;;;;;;;;;;;;21.70;25.92;98117.47;4977438;28;1013;-77
2024/03/07 06:47:44;;;;;;;;;;;;;;;21.78;25.49;98113.22;4993728;28;991;-76
2024/03/07 06:50:09;;;;;;;;;;;;;;;21.82;25.79;98111.09;4977175;28;1036;-76
2024/03/07 06:52:35;;;;;;;;;;;;;;;21.97;25.35;98113.56;4993650;28;1091;-76
2024/03/07 06:55:02;;;;;;;;;;;;;;;21.78;25.83;98113.22;4993603;28;1938;-76
2024/03/07 06:57:28;;;;;;;;;;;;;;;21.69;25.73;98117.91;4993368;28;1027;-76
2024/03/07 06:59:55;;;;;;;;;;;;;;;21.60;25.73;98118.53;4993652;28;1075;-76
2024/03/07 07:02:20;;;;;;;;;;;;;;;21.20;26.30;98123.53;4977148;28;1060;-76
2024/03/07 07:04:47;;;;;;;;;;;;;;;21.74;25.79;98121.00;4999041;28;1156;-76
2024/03/07 07:07:13;;;;;;;;;;;;;;;21.85;25.49;98120.72;5055609;28;1036;-76
2024/03/07 07:09:39;;;;;;;;;;;;;;;21.70;25.93;98120.28;5039509;28;1080;-76
2024/03/07 07:12:05;;;;;;;;;;;;;;;21.70;25.77;98125.16;5069745;28;1251;-77
2024/03/07 07:14:31;;;;;;;;;;;;;;;21.77;25.78;98130.66;5057086;28;953;-76
2024/03/07 07:16:56;;;;;;;;;;;;;;;21.82;25.57;98128.09;5055683;28;1979;-76
2024/03/07 07:19:22;;;;;;;;;;;;;;;21.53;25.62;98128.00;5055890;28;910;-77
2024/03/07 07:21:53;;;;;;;;;;;;;;;21.95;25.60;98127.38;5039080;28;1055;-76
2024/03/07 07:24:19;;;;;;;;;;;;;;;21.78;25.58;98124.56;5039482;28;1002;-77
2024/03/07 07:26:45;;;;;;;;;;;;;;;21.74;25.83;98135.16;5055547;28;1262;-76
2024/03/07 07:29:11;;;;;;;;;;;;;;;21.69;25.96;98135.69;5038841;28;1268;-76
2024/03/07 07:31:36;;;;;;;;;;;;;;;21.68;25.79;98131.28;5055298;28;986;-73
2024/03/07 07:34:04;;;;;;;;;;;;;;;21.55;26.16;98130.38;5055409;28;983;-76
2024/03/07 07:36:29;;;;;;;;;;;;;;;21.65;25.90;98149.16;5037982;28;1910;-75
2024/03/07 07:38:55;;;;;;;;;;;;;;;21.43;25.92;98140.38;5055388;28;1022;-76
2024/03/07 07:41:21;;;;;;;;;;;;;;;21.81;25.88;98146.34;5038610;28;1171;-74
2024/03/07 07:43:47;;;;;;;;;;;;;;;21.68;25.87;98148.28;5038754;28;1060;-75
2024/03/07 07:46:13;;;;;;;;;;;;;;;21.66;26.08;98145.09;5038335;28;950;-75
2024/03/07 07:48:38;;;;;;;;;;;;;;;21.77;25.82;98139.97;5052200;28;923;-75
2024/03/07 07:51:05;;;;;;;;;;;;;;;21.82;25.82;98153.59;5056415;28;905;-75
2024/03/07 07:53:30;;;;;;;;;;;;;;;21.74;25.71;98149.31;5054770;28;992;-75
2024/03/07 07:55:56;;;;;;;;;;;;;;;21.65;25.81;98146.31;5055216;28;1922;-75
2024/03/07 07:58:22;;;;;;;;;;;;;;;21.72;25.78;98154.66;5034609;28;954;-75
2024/03/07 08:00:48;;;;;;;;;;;;;;;21.96;25.38;98158.06;5021414;28;1581;-76
2024/03/07 08:03:15;;;;;;;;;;;;;;;21.78;25.74;98167.03;5044132;28;1613;-75
2024/03/07 08:05:41;;;;;;;;;;;;;;;21.91;25.58;98160.66;5026925;28;1505;-76
2024/03/07 08:08:07;;;;;;;;;;;;;;;21.65;25.96;98163.31;5028903;28;1637;-76
2024/03/07 08:10:33;;;;;;;;;;;;;;;21.74;25.66;98160.66;5026255;28;1625;-76
2024/03/07 08:12:58;;;;;;;;;;;;;;;21.62;26.09;98158.53;5027707;28;1623;-76
2024/03/07 08:15:30;;;;;;;;;;;;;;;21.93;25.51;98163.84;5027140;28;1902;-76
2024/03/07 08:17:56;;;;;;;;;;;;;;;21.89;25.92;98154.66;5026369;28;1583;-76
2024/03/07 08:20:22;;;;;;;;;;;;;;;21.63;26.07;98162.97;5020618;28;1665;-77
2024/03/07 08:22:51;;;;;;;;;;;;;;;21.76;25.92;98160.22;5025938;28;1323;-76
2024/03/07 08:25:17;;;;;;;;;;;;;;;21.87;25.61;98162.81;5017831;28;1998;-76
2024/03/07 08:27:46;;;;;;;;;;;;;;;21.66;25.93;98167.75;5045305;28;1509;-76
2024/03/07 08:30:12;;;;;;;;;;;;;;;21.75;25.76;98165.06;5060325;28;1488;-75
2024/03/07 08:32:39;;;;;;;;;;;;;;;22.09;25.33;98158.16;5055419;28;1411;-76
2024/03/07 08:35:06;;;;;;;;;;;;;;;21.96;25.80;98165.78;5067539;28;1898;-76
2024/03/07 08:37:35;;;;;;;;;;;;;;;21.90;25.74;98162.69;5074318;28;958;-76
2024/03/07 08:40:04;;;;;;;;;;;;;;;22.00;25.49;98155.97;5057561;28;1015;-76
2024/03/07 08:42:32;;;;;;;;;;;;;;;21.81;25.64;98156.84;5074317;28;1223;-76
2024/03/07 08:44:58;;;;;;;;;;;;;;;21.59;26.11;98159.41;5057476;28;968;-76
2024/03/07 08:47:23;;;;;;;;;;;;;;;21.53;26.29;98155.53;5057469;28;995;-76
2024/03/07 08:49:49;;;;;;;;;;;;;;;21.89;25.69;98177.31;5057048;28;1125;-76
2024/03/07 08:52:14;;;;;;;;;;;;;;;21.99;25.71;98173.41;5073962;28;1046;-77
2024/03/07 08:54:40;;;;;;;;;;;;;;;21.93;25.56;98172.34;5073927;28;964;-77
2024/03/07 08:57:07;;;;;;;;;;;;;;;21.85;25.80;98168.88;5074055;28;1971;-76
2024/03/07 08:59:33;;;;;;;;;;;;;;;21.56;26.29;98177.31;5057364;28;1243;-76
2024/03/07 09:02:01;;;;;;;;;;;;;;;21.72;26.21;98182.19;5073923;28;1067;-76
2024/03/07 09:04:28;;;;;;;;;;;;;;;21.59;26.41;98180.03;5075569;28;982;-76
2024/03/07 09:06:54;;;;;;;;;;;;;;;22.00;25.74;98178.63;5073362;28;981;-76
2024/03/07 09:09:20;;;;;;;;;;;;;;;22.07;25.71;98174.81;5073756;28;914;-76
2024/03/07 09:11:45;;;;;;;;;;;;;;;21.74;25.95;98179.69;5073434;28;1477;-77
2024/03/07 09:14:11;;;;;;;;;;;;;;;21.74;25.86;98176.84;5040206;28;1123;-76
2024/03/07 09:16:36;;;;;;;;;;;;;;;21.82;25.90;98184.75;5073347;28;1975;-76
2024/03/07 09:19:03;;;;;;;;;;;;;;;21.54;25.99;98179.75;5063437;28;1413;-76
2024/03/07 09:21:29;;;;;;;;;;;;;;;21.91;25.85;98189.78;5069896;28;2220;-76
2024/03/07 09:23:55;;;;;;;;;;;;;;;21.98;25.81;98191.66;5057485;28;1497;-75
2024/03/07 09:26:20;;;;;;;;;;;;;;;21.82;26.00;98184.75;5059566;28;1552;-75
2024/03/07 09:28:46;;;;;;;;;;;;;;;21.87;25.81;98191.13;5047394;28;1691;-75
2024/03/07 09:31:14;;;;;;;;;;;;;;;21.82;25.96;98184.75;5056027;28;1090;-76
2024/03/07 09:33:39;;;;;;;;;;;;;;;21.53;26.24;98187.47;5073018;28;1202;-75
2024/03/07 09:36:06;;;;;;;;;;;;;;;21.28;26.41;98184.38;5073232;28;1984;-76
2024/03/07 09:38:32;;;;;;;;;;;;;;;21.67;26.05;98194.81;5041086;28;1112;-74
2024/03/07 09:40:58;;;;;;;;;;;;;;;21.87;26.01;98185.47;5036494;28;1125;-74
2024/03/07 09:43:25;;;;;;;;;;;;;;;21.91;25.92;98183.31;5036292;28;1362;-74
2024/03/07 09:45:50;;;;;;;;;;;;;;;21.94;25.79;98186.06;5053147;28;1060;-74
2024/03/07 09:48:17;;;;;;;;;;;;;;;21.73;26.03;98184.56;5052856;28;969;-74
2024/03/07 09:50:42;;;;;;;;;;;;;;;21.42;26.55;98183.28;5053117;28;1110;-75
2024/03/07 09:53:08;;;;;;;;;;;;;;;21.27;26.57;98185.59;5053093;28;1036;-75
2024/03/07 09:55:34;;;;;;;;;;;;;;;21.85;26.03;98185.88;5052857;28;1971;-75
2024/03/07 09:58:00;;;;;;;;;;;;;;;21.85;25.78;98183.84;5053358;28;1122;-74
2024/03/07 10:00:26;;;;;;;;;;;;;;;21.81;25.91;98188.81;5055542;28;1024;-75
2024/03/07 10:02:53;;;;;;;;;;;;;;;22.02;25.61;98190.34;5073528;28;1007;-75
2024/03/07 10:05:19;;;;;;;;;;;;;;;21.92;25.66;98194.22;5061695;28;925;-75
2024/03/07 10:07:45;;;;;;;;;;;;;;;22.00;25.76;98183.50;5077112;28;1005;-75
2024/03/07 10:10:11;;;;;;;;;;;;;;;21.83;25.89;98185.53;5060237;28;1079;-75
2024/03/07 10:12:37;;;;;;;;;;;;;;;21.75;26.00;98176.41;5060517;28;1279;-75
2024/03/07 10:15:05;;;;;;;;;;;;;;;21.97;25.78;98179.53;5076783;28;1894;-75
2024/03/07 10:17:30;;;;;;;;;;;;;;;21.90;25.88;98178.91;5060508;28;982;-75
2024/03/07 10:19:59;;;;;;;;;;;;;;;22.00;25.81;98160.84;5043790;28;1269;-75
2024/03/07 10:22:24;;;;;;;;;;;;;;;21.84;26.10;98170.13;5059940;28;982;-75
2024/03/07 10:24:50;;;;;;;;;;;;;;;21.88;25.93;98170.06;5076899;28;1093;-75
2024/03/07 10:27:20;;;;;;;;;;;;;;;21.51;26.66;98158.81;5060075;28;979;-76
2024/03/07 10:29:50;;;;;;;;;;;;;;;21.76;26.23;98157.38;5043554;28;946;-75
2024/03/07 10:32:19;;;;;;;;;;;;;;;21.95;26.00;98159.31;5043282;28;1014;-75
2024/03/07 10:34:46;;;;;;;;;;;;;;;21.94;25.93;98154.09;5019900;28;1238;-75
2024/03/07 10:37:16;;;;;;;;;;;;;;;21.95;25.95;98161.38;5016487;28;1918;-75
2024/03/07 10:39:42;;;;;;;;;;;;;;;21.85;25.71;98158.34;4982645;28;1069;-75
2024/03/07 10:42:08;;;;;;;;;;;;;;;21.80;26.14;98146.75;4997054;28;1019;-75
2024/03/07 10:44:33;;;;;;;;;;;;;;;21.58;26.16;98152.94;4997132;28;1073;-76
2024/03/07 10:47:03;;;;;;;;;;;;;;;21.88;26.01;98164.38;4997304;28;992;-75
2024/03/07 10:49:30;;;;;;;;;;;;;;;21.86;26.10;98161.97;4996813;28;982;-75
2024/03/07 10:52:01;;;;;;;;;;;;;;;21.23;26.04;98075.31;4997455;28;1213;-75
2024/03/07 10:54:34;;;;;;;;;;;;;;;21.91;26.02;98149.31;4997174;28;1030;-75
2024/03/07 10:57:11;;;;;;;;;;;;;;;22.02;25.89;98152.66;4996810;28;1906;-75
2024/03/07 10:59:38;;;;;;;;;;;;;;;21.94;25.75;98154.09;4996957;28;1000;-75
2024/03/07 11:02:30;;;;;;;;;;;;;;;21.42;26.11;98152.16;4996867;28;955;-75
2024/03/07 11:04:55;;;;;;;;;;;;;;;21.45;26.83;98143.59;4999553;28;1243;-75
2024/03/07 11:07:22;;;;;;;;;;;;;;;21.87;26.19;98157.13;4999860;28;1283;-75
2024/03/07 11:09:51;;;;;;;;;;;;;;;21.81;26.38;98154.84;5016289;28;964;-75
2024/03/07 11:12:18;;;;;;;;;;;;;;;21.78;26.38;98152.88;4994728;28;1101;-75
2024/03/07 11:14:44;;;;;;;;;;;;;;;21.91;26.18;98152.16;5002191;28;995;-75
2024/03/07 11:17:09;;;;;;;;;;;;;;;21.95;25.91;98152.88;5015488;28;1923;-75
2024/03/07 11:19:38;;;;;;;;;;;;;;;21.80;25.97;98163.75;5012042;28;2039;-75
2024/03/07 11:22:15;;;;;;;;;;;;;;;21.82;26.11;98159.25;4996994;28;1492;-76
2024/03/07 11:24:42;;;;;;;;;;;;;;;21.98;25.79;98147.13;4996070;28;1131;-76
2024/03/07 11:27:09;;;;;;;;;;;;;;;22.03;25.92;98154.28;4996332;28;1151;-76
2024/03/07 11:29:37;;;;;;;;;;;;;;;21.97;25.96;98144.75;4996245;28;992;-76
2024/03/07 11:32:03;;;;;;;;;;;;;;;22.01;25.84;98146.22;4996316;28;1061;-76
2024/03/07 11:34:31;;;;;;;;;;;;;;;21.90;25.95;98148.53;4996125;28;1097;-74
2024/03/07 11:36:59;;;;;;;;;;;;;;;21.75;26.12;98150.91;4995871;28;1926;-75
2024/03/07 11:39:44;;;;;;;;;;;;;;;21.70;26.12;98154.28;4995863;28;1090;-75
2024/03/07 11:42:19;;;;;;;;;;;;;;;21.81;26.11;98151.19;5009764;28;1099;-75
2024/03/07 11:44:46;;;;;;;;;;;;;;;21.87;26.01;98151.47;5038581;28;1098;-75
2024/03/07 11:47:12;;;;;;;;;;;;;;;21.93;26.04;98146.84;5015676;28;1061;-75
2024/03/07 11:49:38;;;;;;;;;;;;;;;21.90;26.25;98142.06;5015483;28;1078;-75
2024/03/07 11:52:13;;;;;;;;;;;;;;;21.33;26.92;98145.03;5015312;28;1075;-75
2024/03/07 11:54:41;;;;;;;;;;;;;;;21.67;26.47;98146.69;5025616;28;1120;-74
2024/03/07 11:57:12;;;;;;;;;;;;;;;21.77;26.50;98142.78;5018905;28;1914;-75
2024/03/07 11:59:45;;;;;;;;;;;;;;;21.98;26.15;98144.28;5014787;28;1017;-74
2024/03/07 12:02:15;;;;;;;;;;;;;;;21.88;26.14;98142.53;5018702;28;1612;-77
2024/03/07 12:04:40;;;;;;;;;;;;;;;22.10;25.91;98148.41;5018027;28;1455;-77
2024/03/07 12:07:06;;;;;;;;;;;;;;;21.79;26.34;98145.97;5034435;28;1529;-75
2024/03/07 12:09:35;;;;;;;;;;;;;;;21.68;26.60;98136.94;5014587;28;958;-75
2024/03/07 12:12:02;;;;;;;;;;;;;;;21.83;26.21;98151.56;5015166;28;1013;-75
2024/03/07 12:14:27;;;;;;;;;;;;;;;21.89;26.34;98137.66;5014710;28;950;-76
2024/03/07 12:16:53;;;;;;;;;;;;;;;22.20;25.54;98147.38;5014453;28;1918;-75
2024/03/07 12:19:19;;;;;;;;;;;;;;;21.95;26.00;98147.19;5023017;28;1569;-75
2024/03/07 12:21:46;;;;;;;;;;;;;;;21.75;26.31;98139.59;5026128;28;1539;-75
2024/03/07 12:24:12;;;;;;;;;;;;;;;21.74;26.53;98138.00;5019683;28;1503;-76
2024/03/07 12:26:38;;;;;;;;;;;;;;;21.77;26.21;98142.78;5023971;28;1533;-75
2024/03/07 12:29:12;;;;;;;;;;;;;;;21.70;26.27;98145.78;5026628;28;1515;-76
2024/03/07 12:31:43;;;;;;;;;;;;;;;21.47;26.43;98148.78;5014066;28;1473;-76
2024/03/07 12:34:09;;;;;;;;;;;;;;;22.02;25.94;98142.16;5029034;28;1613;-77
2024/03/07 12:36:46;;;;;;;;;;;;;;;22.01;25.75;98145.41;5028718;28;1918;-77
2024/03/07 12:39:35;;;;;;;;;;;;;;;21.87;26.06;98146.59;5031198;28;1585;-76
2024/03/07 12:42:02;;;;;;;;;;;;;;;21.68;26.28;98144.66;5029492;28;1512;-76
2024/03/07 12:44:28;;;;;;;;;;;;;;;21.85;25.86;98132.06;5029077;28;1509;-74
2024/03/07 12:46:55;;;;;;;;;;;;;;;21.67;26.02;98132.53;5042599;28;1541;-74
2024/03/07 12:49:21;;;;;;;;;;;;;;;21.70;26.07;98137.28;5075294;28;1077;-74
2024/03/07 12:51:47;;;;;;;;;;;;;;;21.87;25.99;98125.97;5075330;28;900;-74
2024/03/07 12:54:12;;;;;;;;;;;;;;;21.73;26.27;98139.25;5075132;28;992;-74
2024/03/07 12:56:39;;;;;;;;;;;;;;;21.97;25.71;98133.41;5058315;28;1907;-74
2024/03/07 12:59:07;;;;;;;;;;;;;;;21.88;25.99;98138.91;5076214;28;888;-73
2024/03/07 13:01:33;;;;;;;;;;;;;;;21.74;26.02;98138.00;5067269;28;1657;-74